createdAt,value
2019-05-16T00:00:49.632Z,99.90
2019-05-16T00:03:19.541Z,99.90
2019-05-16T00:05:54.194Z,99.90
2019-05-16T00:11:19.422Z,99.90
2019-05-16T00:13:49.263Z,99.90
2019-05-16T00:16:20.695Z,99.90
2019-05-16T00:18:50.158Z,99.90
2019-05-16T00:21:19.697Z,99.90
2019-05-16T00:23:49.227Z,99.90
2019-05-16T00:26:19.814Z,99.90
2019-05-16T00:28:49.496Z,99.90
2019-05-16T00:31:19.316Z,99.90
2019-05-16T00:33:48.925Z,99.90
2019-05-16T00:36:18.887Z,99.90
2019-05-16T00:38:48.649Z,99.90
2019-05-16T00:41:18.168Z,99.90
2019-05-16T00:43:48.617Z,99.90
2019-05-16T00:46:20.111Z,99.90
2019-05-16T00:48:49.996Z,99.90
2019-05-16T00:51:19.633Z,99.90
2019-05-16T00:53:49.127Z,99.90
2019-05-16T00:56:18.845Z,99.90
2019-05-16T00:58:49.058Z,99.90
2019-05-16T01:01:18.953Z,99.90
2019-05-16T01:03:48.761Z,99.90
2019-05-16T01:06:22.542Z,99.90
2019-05-16T01:08:49.305Z,99.90
2019-05-16T01:11:18.979Z,99.90
2019-05-16T01:13:48.818Z,99.90
2019-05-16T01:16:18.737Z,99.90
2019-05-16T01:18:48.776Z,99.90
2019-05-16T01:21:18.762Z,99.90
2019-05-16T01:23:48.386Z,99.90
2019-05-16T01:26:18.641Z,99.90
2019-05-16T01:28:48.568Z,99.90
2019-05-16T01:31:19.182Z,99.90
2019-05-16T01:33:48.830Z,99.90
2019-05-16T01:36:31.838Z,99.90
2019-05-16T01:38:49.398Z,99.90
2019-05-16T01:41:18.961Z,99.90
2019-05-16T01:43:48.541Z,99.90
2019-05-16T01:46:18.312Z,99.90
2019-05-16T01:48:48.521Z,99.90
2019-05-16T01:51:18.645Z,99.90
2019-05-16T01:53:48.898Z,99.90
2019-05-16T01:56:18.514Z,99.90
2019-05-16T01:58:49.013Z,99.90
2019-05-16T02:01:19.159Z,99.90
2019-05-16T02:03:48.845Z,99.90
2019-05-16T02:06:18.603Z,99.90
2019-05-16T02:08:48.668Z,99.90
2019-05-16T02:11:18.490Z,99.90
2019-05-16T02:13:48.397Z,99.90
2019-05-16T02:16:18.716Z,99.90
2019-05-16T02:18:48.829Z,99.90
2019-05-16T02:21:18.457Z,99.90
2019-05-16T02:23:49.038Z,99.90
2019-05-16T02:26:20.113Z,99.90
2019-05-16T02:28:50.687Z,99.90
2019-05-16T02:31:22.761Z,99.90
2019-05-16T02:33:51.750Z,99.90
2019-05-16T02:36:21.851Z,99.90
2019-05-16T02:38:55.427Z,99.90
2019-05-16T02:41:22.499Z,99.90
2019-05-16T02:43:51.963Z,99.90
2019-05-16T02:46:22.040Z,99.90
2019-05-16T02:48:51.976Z,99.90
2019-05-16T02:51:21.775Z,99.90
2019-05-16T02:53:54.351Z,99.90
2019-05-16T02:56:23.796Z,99.90
2019-05-16T02:58:53.170Z,99.90
2019-05-16T03:01:22.525Z,99.90
2019-05-16T03:03:52.088Z,99.90
2019-05-16T03:06:22.546Z,99.90
2019-05-16T03:08:54.156Z,99.90
2019-05-16T03:11:25.095Z,99.90
2019-05-16T03:13:55.084Z,99.90
2019-05-16T03:16:26.499Z,99.90
2019-05-16T03:18:56.030Z,99.90
2019-05-16T03:21:26.255Z,99.90
2019-05-16T03:23:55.660Z,99.90
2019-05-16T03:26:25.064Z,99.90
2019-05-16T03:28:54.503Z,99.90
2019-05-16T03:31:25.242Z,99.90
2019-05-16T03:33:59.606Z,99.90
2019-05-16T03:36:26.071Z,99.90
2019-05-16T03:38:55.508Z,99.90
2019-05-16T03:41:24.827Z,99.90
2019-05-16T03:43:54.224Z,99.90
2019-05-16T03:46:23.665Z,99.90
2019-05-16T03:48:53.086Z,99.90
2019-05-16T03:51:22.505Z,99.90
2019-05-16T03:53:51.987Z,99.90
2019-05-16T03:56:22.071Z,99.90
2019-05-16T03:58:51.549Z,99.90
2019-05-16T04:01:21.201Z,99.90
2019-05-16T04:03:51.351Z,99.90
2019-05-16T04:06:22.060Z,99.90
2019-05-16T04:08:51.709Z,99.90
2019-05-16T04:11:23.262Z,99.90
2019-05-16T04:13:52.760Z,99.90
2019-05-16T04:16:22.169Z,99.90
2019-05-16T04:18:51.681Z,99.90
2019-05-16T04:21:22.005Z,99.90
2019-05-16T04:23:51.636Z,99.90
2019-05-16T04:26:21.805Z,99.90
2019-05-16T04:28:51.751Z,99.90
2019-05-16T04:31:21.975Z,99.90
2019-05-16T04:33:54.232Z,99.90
2019-05-16T04:36:23.718Z,99.90
2019-05-16T04:38:53.103Z,99.90
2019-05-16T04:41:22.512Z,99.90
2019-05-16T04:43:51.906Z,99.90
2019-05-16T04:46:21.734Z,99.90
2019-05-16T04:48:51.226Z,99.90
2019-05-16T04:51:21.904Z,99.90
2019-05-16T04:53:51.592Z,99.90
2019-05-16T04:56:21.874Z,99.90
2019-05-16T04:58:51.730Z,99.90
2019-05-16T05:01:21.716Z,99.90
2019-05-16T05:04:06.115Z,99.90
2019-05-16T05:06:22.463Z,99.90
2019-05-16T05:08:58.459Z,99.90
2019-05-16T05:11:23.004Z,99.90
2019-05-16T05:13:52.390Z,99.90
2019-05-16T05:16:21.778Z,99.90
2019-05-16T05:18:51.615Z,99.90
2019-05-16T05:21:21.216Z,99.90
2019-05-16T05:23:50.968Z,99.90
2019-05-16T05:26:21.243Z,99.90
2019-05-16T05:28:50.941Z,99.90
2019-05-16T05:31:24.626Z,99.90
2019-05-16T05:33:51.636Z,99.90
2019-05-16T05:36:21.288Z,99.90
2019-05-16T05:39:00.224Z,99.90
2019-05-16T05:41:21.776Z,99.90
2019-05-16T05:43:54.334Z,99.90
2019-05-16T05:46:22.881Z,99.90
2019-05-16T05:48:52.358Z,99.90
2019-05-16T05:51:21.840Z,99.90
2019-05-16T05:53:51.702Z,99.90
2019-05-16T05:56:21.138Z,99.90
2019-05-16T05:58:51.242Z,99.90
2019-05-16T06:01:20.858Z,99.90
2019-05-16T06:03:50.630Z,99.90
2019-05-16T06:06:21.013Z,99.90
2019-05-16T06:08:50.767Z,99.90
2019-05-16T06:11:20.628Z,99.90
2019-05-16T06:13:50.279Z,99.90
2019-05-16T06:16:20.440Z,99.90
2019-05-16T06:22:01.743Z,99.90
2019-05-16T06:24:31.295Z,99.90
2019-05-16T06:27:01.055Z,99.90
2019-05-16T06:29:30.999Z,99.90
2019-05-16T06:32:00.579Z,99.90
2019-05-16T06:34:30.299Z,99.90
2019-05-16T06:37:00.514Z,99.90
2019-05-16T06:39:41.249Z,99.90
2019-05-16T06:42:01.210Z,99.90
2019-05-16T06:44:31.028Z,99.90
2019-05-16T06:47:16.092Z,99.90
2019-05-16T06:49:31.668Z,99.90
2019-05-16T06:52:01.145Z,99.90
2019-05-16T06:54:30.600Z,99.90
2019-05-16T06:57:00.465Z,99.90
2019-05-16T07:16:04.427Z,99.90
2019-05-16T07:18:34.372Z,99.90
2019-05-16T07:21:04.150Z,99.90
2019-05-16T07:23:33.613Z,99.90
2019-05-16T07:26:03.080Z,99.90
2019-05-16T07:28:32.485Z,99.90
2019-05-16T07:31:14.384Z,99.90
2019-05-16T07:33:33.166Z,99.90
2019-05-16T07:36:02.690Z,99.90
2019-05-16T07:38:32.172Z,99.90
2019-05-16T07:41:01.603Z,99.90
2019-05-16T07:43:31.207Z,99.90
2019-05-16T07:46:00.755Z,99.90
2019-05-16T07:48:31.749Z,99.90
2019-05-16T07:51:30.839Z,99.90
2019-05-16T07:54:01.861Z,99.90
2019-05-16T07:56:34.385Z,99.90
2019-05-16T07:59:05.251Z,99.90
2019-05-16T08:01:35.593Z,99.90
2019-05-16T08:04:05.893Z,99.90
2019-05-16T08:06:36.506Z,99.90
2019-05-16T08:09:07.986Z,99.90
2019-05-16T08:11:41.508Z,99.90
2019-05-16T08:14:11.214Z,99.90
2019-05-16T08:16:41.061Z,99.90
2019-05-16T08:19:12.835Z,99.90
2019-05-16T08:21:44.802Z,99.90
2019-05-16T08:24:15.319Z,99.90
2019-05-16T08:26:44.951Z,99.90
2019-05-16T08:29:14.678Z,99.90
2019-05-16T08:31:44.370Z,99.90
2019-05-16T08:34:13.875Z,99.90
2019-05-16T08:36:43.533Z,99.90
2019-05-16T08:39:14.075Z,99.90
2019-05-16T08:41:44.163Z,99.90
2019-05-16T08:44:13.801Z,99.90
2019-05-16T08:46:43.475Z,99.90
2019-05-16T08:49:30.527Z,99.90
2019-05-16T08:52:01.440Z,99.90
2019-05-16T08:54:31.945Z,99.90
2019-05-16T08:57:20.789Z,99.90
2019-05-16T09:02:04.989Z,99.90
2019-05-16T09:04:34.584Z,99.90
2019-05-16T09:07:04.441Z,99.90
2019-05-16T09:09:44.244Z,99.90
2019-05-16T09:10:15.891Z,99.90
2019-05-16T09:12:07.855Z,99.90
2019-05-16T09:14:39.101Z,99.90
2019-05-16T09:17:08.581Z,99.90
2019-05-16T09:19:38.566Z,99.90
2019-05-16T09:22:08.163Z,99.90
2019-05-16T09:24:38.033Z,99.90
2019-05-16T09:29:58.905Z,99.90
2019-05-16T09:32:28.457Z,99.90
2019-05-16T09:34:58.061Z,99.90
2019-05-16T09:37:27.594Z,99.90
2019-05-16T09:39:58.204Z,99.90
2019-05-16T09:42:28.726Z,99.90
2019-05-16T09:45:19.434Z,99.90
2019-05-16T09:47:49.002Z,99.90
2019-05-16T09:50:19.504Z,99.90
2019-05-16T09:52:48.986Z,99.90
2019-05-16T09:55:19.493Z,99.90
2019-05-16T09:57:49.323Z,99.90
2019-05-16T10:00:21.160Z,99.90
2019-05-16T10:02:50.966Z,99.90
2019-05-16T10:05:22.036Z,99.90
2019-05-16T10:07:53.066Z,99.90
2019-05-16T10:10:26.538Z,99.90
2019-05-16T10:12:56.372Z,99.90
2019-05-16T10:15:26.993Z,99.40
2019-05-16T10:17:57.564Z,98.90
2019-05-16T10:20:27.478Z,99.00
2019-05-16T10:22:57.920Z,99.70
2019-05-16T10:25:29.018Z,98.90
2019-05-16T10:27:58.646Z,98.70
2019-05-16T10:30:29.514Z,98.70
2019-05-16T10:33:00.966Z,98.60
2019-05-16T10:35:30.909Z,99.30
2019-05-16T10:38:00.442Z,99.30
2019-05-16T10:40:30.122Z,99.20
2019-05-16T10:42:59.641Z,99.10
2019-05-16T10:45:29.575Z,98.80
2019-05-16T10:47:59.119Z,99.20
2019-05-16T10:50:31.115Z,98.90
2019-05-16T10:53:22.307Z,99.20
2019-05-16T10:55:36.883Z,99.10
2019-05-16T10:58:07.517Z,99.10
2019-05-16T11:01:05.444Z,99.20
2019-05-16T11:03:08.597Z,99.20
2019-05-16T11:05:39.610Z,99.20
2019-05-16T11:08:09.366Z,98.60
2019-05-16T11:10:39.265Z,98.00
2019-05-16T11:16:17.376Z,97.70
2019-05-16T11:18:45.569Z,97.90
2019-05-16T11:21:18.981Z,98.40
2019-05-16T11:23:47.118Z,98.20
2019-05-16T11:26:16.785Z,97.50
2019-05-16T11:28:48.412Z,97.60
2019-05-16T11:31:17.737Z,98.00
2019-05-16T11:33:47.708Z,97.40
2019-05-16T11:36:20.268Z,99.30
2019-05-16T11:38:51.655Z,97.50
2019-05-16T11:41:20.828Z,97.50
2019-05-16T11:43:50.875Z,96.80
2019-05-16T11:46:20.348Z,97.20
2019-05-16T11:48:51.371Z,98.40
2019-05-16T11:51:22.870Z,96.70
2019-05-16T11:53:52.447Z,97.10
2019-05-16T11:56:21.976Z,96.20
2019-05-16T11:58:51.588Z,96.80
2019-05-16T12:01:21.119Z,96.90
2019-05-16T12:03:51.009Z,96.80
2019-05-16T12:06:21.622Z,96.70
2019-05-16T12:08:51.468Z,98.60
2019-05-16T12:11:20.920Z,97.60
2019-05-16T12:13:50.692Z,96.10
2019-05-16T12:16:20.280Z,95.70
2019-05-16T12:18:49.759Z,96.00
2019-05-16T12:21:19.236Z,97.00
2019-05-16T12:23:48.727Z,95.90
2019-05-16T12:26:18.201Z,96.50
2019-05-16T12:28:47.576Z,96.40
2019-05-16T12:31:17.567Z,96.80
2019-05-16T12:33:47.833Z,97.10
2019-05-16T12:36:17.847Z,96.20
2019-05-16T12:38:47.351Z,96.10
2019-05-16T12:41:17.421Z,97.30
2019-05-16T12:43:53.047Z,95.90
2019-05-16T12:46:18.220Z,96.00
2019-05-16T12:48:47.746Z,95.90
2019-05-16T12:51:17.354Z,96.50
2019-05-16T12:53:47.723Z,96.60
2019-05-16T12:56:19.466Z,96.70
2019-05-16T12:58:50.891Z,96.50
2019-05-16T13:01:21.039Z,97.30
2019-05-16T13:06:49.935Z,96.80
2019-05-16T13:09:19.547Z,97.20
2019-05-16T13:11:49.048Z,96.70
2019-05-16T13:14:18.628Z,96.80
2019-05-16T13:16:48.100Z,96.60
2019-05-16T13:19:18.173Z,96.80
2019-05-16T13:21:48.586Z,96.60
2019-05-16T13:24:18.841Z,97.30
2019-05-16T13:26:48.460Z,96.90
2019-05-16T13:29:18.359Z,96.50
2019-05-16T13:31:48.197Z,97.60
2019-05-16T13:34:18.027Z,95.60
2019-05-16T13:36:47.729Z,95.10
2019-05-16T13:39:17.378Z,95.70
2019-05-16T13:41:46.770Z,96.70
2019-05-16T13:44:22.068Z,96.50
2019-05-16T13:46:49.153Z,96.50
2019-05-16T13:49:19.458Z,97.10
2019-05-16T13:51:49.365Z,96.70
2019-05-16T13:54:22.145Z,96.90
2019-05-16T13:56:52.454Z,96.70
2019-05-16T13:59:22.059Z,97.00
2019-05-16T14:01:57.177Z,96.90
2019-05-16T14:04:26.427Z,97.00
2019-05-16T14:06:58.810Z,97.30
2019-05-16T14:09:27.032Z,97.50
2019-05-16T14:11:56.539Z,98.30
2019-05-16T14:14:37.557Z,98.00
2019-05-16T14:16:57.201Z,97.80
2019-05-16T14:19:27.465Z,97.90
2019-05-16T14:21:57.495Z,98.20
2019-05-16T14:24:28.136Z,98.70
2019-05-16T14:26:57.873Z,98.70
2019-05-16T14:29:27.955Z,98.80
2019-05-16T14:31:57.600Z,99.50
2019-05-16T14:34:27.894Z,99.80
2019-05-16T14:36:57.931Z,99.90
2019-05-16T14:39:28.635Z,99.90
2019-05-16T14:41:58.244Z,99.90
2019-05-16T14:44:28.696Z,99.90
2019-05-16T14:46:58.428Z,99.90
2019-05-16T14:49:29.104Z,99.90
2019-05-16T14:51:59.151Z,99.90
2019-05-16T14:54:29.087Z,99.90
2019-05-16T14:57:01.124Z,99.90
2019-05-16T14:59:30.835Z,99.90
2019-05-16T15:02:02.149Z,99.90
2019-05-16T15:04:31.768Z,99.90
2019-05-16T15:07:01.538Z,99.90
2019-05-16T15:09:31.431Z,99.90
2019-05-16T15:12:01.294Z,99.90
2019-05-16T15:14:31.229Z,99.90
2019-05-16T15:17:01.330Z,99.90
2019-05-16T15:19:30.936Z,99.90
2019-05-16T15:22:02.550Z,99.90
2019-05-16T15:24:32.089Z,99.90
2019-05-16T15:27:02.281Z,99.90
2019-05-16T15:29:37.794Z,99.90
2019-05-16T15:32:08.744Z,99.90
2019-05-16T15:34:38.946Z,98.70
2019-05-16T15:37:08.497Z,98.80
2019-05-16T15:39:37.972Z,99.40
2019-05-16T15:45:07.176Z,97.70
2019-05-16T15:47:37.822Z,97.20
2019-05-16T15:50:09.828Z,96.70
2019-05-16T15:52:39.816Z,96.60
2019-05-16T15:55:11.588Z,95.90
2019-05-16T15:57:43.096Z,95.60
2019-05-16T16:00:13.699Z,96.00
2019-05-16T16:02:43.284Z,95.90
2019-05-16T16:05:14.072Z,95.80
2019-05-16T16:07:43.520Z,95.20
2019-05-16T16:10:13.089Z,94.70
2019-05-16T16:12:42.601Z,94.30
2019-05-16T16:15:12.478Z,94.20
2019-05-16T16:17:42.021Z,94.10
2019-05-16T16:20:11.814Z,94.80
2019-05-16T16:22:41.354Z,94.70
2019-05-16T16:25:10.916Z,94.70
2019-05-16T16:27:40.450Z,95.20
2019-05-16T16:30:10.316Z,95.60
2019-05-16T16:32:40.270Z,95.60
2019-05-16T16:35:10.132Z,96.20
2019-05-16T16:37:39.973Z,96.20
2019-05-16T16:40:12.129Z,96.20
2019-05-16T16:42:42.133Z,96.40
2019-05-16T16:45:11.872Z,96.40
2019-05-16T16:47:42.330Z,96.50
2019-05-16T16:50:12.059Z,96.60
2019-05-16T16:52:41.987Z,96.70
2019-05-16T16:55:11.498Z,96.70
2019-05-16T16:57:41.053Z,97.30
2019-05-16T17:00:10.988Z,97.20
2019-05-16T17:02:40.446Z,97.50
2019-05-16T17:05:12.721Z,97.70
2019-05-16T17:07:41.924Z,97.90
2019-05-16T17:10:12.464Z,97.70
2019-05-16T17:12:42.583Z,97.90
2019-05-16T17:15:12.763Z,98.10
2019-05-16T17:17:42.735Z,98.10
2019-05-16T17:20:12.656Z,98.40
2019-05-16T17:22:42.525Z,98.60
2019-05-16T17:25:12.263Z,99.00
2019-05-16T17:27:46.834Z,99.10
2019-05-16T17:30:17.239Z,99.80
2019-05-16T17:32:47.621Z,99.60
2019-05-16T17:35:20.906Z,99.90
2019-05-16T17:37:50.491Z,99.90
2019-05-16T17:40:20.883Z,99.90
2019-05-16T17:42:50.349Z,99.90
2019-05-16T17:45:21.332Z,99.90
2019-05-16T17:47:50.857Z,99.90
2019-05-16T17:50:22.772Z,99.90
2019-05-16T17:52:52.350Z,99.90
2019-05-16T17:55:22.206Z,99.90
2019-05-16T17:57:52.096Z,99.90
2019-05-16T18:00:28.169Z,99.90
2019-05-16T18:02:57.065Z,99.90
2019-05-16T18:05:26.773Z,99.90
2019-05-16T18:07:56.489Z,99.90
2019-05-16T18:10:27.061Z,99.90
2019-05-16T18:16:00.752Z,99.90
2019-05-16T18:18:30.211Z,99.90
2019-05-16T18:21:02.123Z,99.90
2019-05-16T18:23:30.857Z,99.90
2019-05-16T18:26:02.169Z,99.90
2019-05-16T18:28:31.773Z,99.90
2019-05-16T18:31:01.276Z,99.90
2019-05-16T18:33:30.718Z,99.90
2019-05-16T18:36:00.228Z,99.90
2019-05-16T18:38:29.827Z,99.90
2019-05-16T18:40:59.231Z,99.90
2019-05-16T18:43:28.723Z,99.90
2019-05-16T18:45:58.192Z,99.90
2019-05-16T18:48:27.712Z,99.90
2019-05-16T18:50:58.254Z,99.90
2019-05-16T18:53:30.217Z,99.90
2019-05-16T18:58:46.612Z,99.90
2019-05-16T19:01:17.592Z,99.90
2019-05-16T19:03:49.006Z,99.90
2019-05-16T19:06:43.274Z,99.90
2019-05-16T19:12:11.359Z,99.90
2019-05-16T19:14:40.805Z,99.90
2019-05-16T19:17:22.113Z,99.90
2019-05-16T19:19:42.713Z,99.90
2019-05-16T19:22:12.284Z,99.90
2019-05-16T19:24:42.789Z,99.90
2019-05-16T19:27:12.379Z,99.90
2019-05-16T19:29:41.914Z,99.90
2019-05-16T19:32:11.477Z,99.90
2019-05-16T19:34:40.956Z,99.90
2019-05-16T19:37:11.261Z,99.90
2019-05-16T19:39:40.725Z,99.90
2019-05-16T19:42:10.161Z,99.90
2019-05-16T19:44:39.698Z,99.90
2019-05-16T19:47:09.125Z,99.90
2019-05-16T19:49:38.600Z,99.90
2019-05-16T19:52:08.049Z,99.90
2019-05-16T19:54:37.639Z,99.90
2019-05-16T19:57:07.446Z,99.90
2019-05-16T19:59:37.439Z,99.90
2019-05-16T20:02:07.652Z,99.90
2019-05-16T20:04:37.223Z,99.90
2019-05-16T20:07:07.490Z,99.90
2019-05-16T20:09:36.975Z,99.90
2019-05-16T20:12:07.673Z,99.90
2019-05-16T20:14:37.536Z,99.90
2019-05-16T20:17:07.491Z,99.90
2019-05-16T20:19:37.051Z,99.90
2019-05-16T20:22:07.716Z,99.90
2019-05-16T20:24:37.260Z,99.90
2019-05-16T20:27:08.068Z,99.90
2019-05-16T20:29:37.726Z,99.90
2019-05-16T20:32:08.240Z,99.90
2019-05-16T20:34:38.471Z,99.90
2019-05-16T20:37:09.276Z,99.90
2019-05-16T20:39:38.824Z,99.90
2019-05-16T20:42:08.282Z,99.90
2019-05-16T20:44:38.773Z,99.90
2019-05-16T20:47:08.231Z,99.90
2019-05-16T20:49:37.750Z,99.90
2019-05-16T20:52:07.297Z,99.90
2019-05-16T20:54:37.693Z,99.90
2019-05-16T20:57:07.822Z,99.90
2019-05-16T20:59:37.328Z,99.90
2019-05-16T21:02:07.011Z,99.90
2019-05-16T21:04:37.418Z,99.90
2019-05-16T21:07:10.883Z,99.90
2019-05-16T21:09:38.276Z,99.90
2019-05-16T21:12:08.255Z,99.90
2019-05-16T21:14:38.222Z,99.90
2019-05-16T21:17:07.695Z,99.90
2019-05-16T21:19:39.336Z,99.90
2019-05-16T21:22:08.780Z,99.90
2019-05-16T21:24:38.273Z,99.90
2019-05-16T21:27:07.830Z,99.90
2019-05-16T21:29:37.339Z,99.90
2019-05-16T21:32:07.448Z,99.90
2019-05-16T21:34:37.128Z,99.90
2019-05-16T21:37:16.600Z,99.90
2019-05-16T21:39:37.775Z,99.90
2019-05-16T21:42:07.656Z,99.90
2019-05-16T21:44:37.618Z,99.90
2019-05-16T21:47:07.368Z,99.90
2019-05-16T21:49:37.116Z,99.90
2019-05-16T21:52:06.812Z,99.90
2019-05-16T21:54:36.821Z,99.90
2019-05-16T21:57:06.401Z,99.90
2019-05-16T21:59:37.579Z,99.90
2019-05-16T22:02:07.356Z,99.90
2019-05-16T22:04:36.911Z,99.90
2019-05-16T22:07:07.213Z,99.90
2019-05-16T22:09:37.185Z,99.90
2019-05-16T22:12:06.855Z,99.90
2019-05-16T22:14:43.283Z,99.90
2019-05-16T22:17:13.091Z,99.90
2019-05-16T22:19:42.577Z,99.90
2019-05-16T22:22:12.141Z,99.90
2019-05-16T22:24:41.611Z,99.90
2019-05-16T22:27:11.058Z,99.90
2019-05-16T22:29:40.541Z,99.90
2019-05-16T22:32:10.003Z,99.90
2019-05-16T22:34:39.469Z,99.90
2019-05-16T22:37:09.002Z,99.90
2019-05-16T22:39:38.452Z,99.90
2019-05-16T22:42:09.322Z,99.90
2019-05-16T22:44:38.942Z,99.90
2019-05-16T22:47:08.391Z,99.90
2019-05-16T22:49:37.873Z,99.90
2019-05-16T22:52:07.279Z,99.90
2019-05-16T22:54:37.159Z,99.90
2019-05-16T22:57:07.025Z,99.90
2019-05-16T22:59:36.511Z,99.90
2019-05-16T23:02:11.534Z,99.90
2019-05-16T23:04:39.643Z,99.90
2019-05-16T23:07:09.699Z,99.90
2019-05-16T23:09:39.099Z,99.90
2019-05-16T23:12:08.637Z,99.90
2019-05-16T23:14:38.097Z,99.90
2019-05-16T23:17:07.621Z,99.90
2019-05-16T23:19:37.139Z,99.90
2019-05-16T23:22:07.719Z,99.90
2019-05-16T23:24:37.344Z,99.90
2019-05-16T23:27:07.092Z,99.90
2019-05-16T23:29:36.895Z,99.90
2019-05-16T23:32:07.348Z,99.90
2019-05-16T23:34:37.971Z,99.90
2019-05-16T23:37:07.541Z,99.90
2019-05-16T23:39:37.933Z,99.90
2019-05-16T23:42:07.979Z,99.90
2019-05-16T23:44:37.407Z,99.90
2019-05-16T23:47:07.255Z,99.90
2019-05-16T23:49:58.037Z,99.90
2019-05-16T23:52:27.544Z,99.90
2019-05-16T23:54:57.181Z,99.90
2019-05-16T23:57:26.781Z,99.90
2019-05-16T23:59:56.772Z,99.90
